sensor_id;sensor_type;location;lat;lon;timestamp;temperature;humidity
51867;DHT22;52862;52.504;13.480;2023-05-07T00:02:00;9.80;99.90
51867;DHT22;52862;52.504;13.480;2023-05-07T00:04:27;9.90;99.90
51867;DHT22;52862;52.504;13.480;2023-05-07T00:06:54;9.80;99.90
51867;DHT22;52862;52.504;13.480;2023-05-07T00:09:21;9.80;99.90
51867;DHT22;52862;52.504;13.480;2023-05-07T00:11:48;9.90;99.90
51867;DHT22;52862;52.504;13.480;2023-05-07T00:14:14;9.80;99.90
51867;DHT22;52862;52.504;13.480;2023-05-07T00:16:42;9.80;99.90
51867;DHT22;52862;52.504;13.480;2023-05-07T00:19:08;9.90;99.90
51867;DHT22;52862;52.504;13.480;2023-05-07T00:21:35;9.80;99.90
51867;DHT22;52862;52.504;13.480;2023-05-07T00:24:02;9.80;99.90
51867;DHT22;52862;52.504;13.480;2023-05-07T00:26:29;9.80;99.90
51867;DHT22;52862;52.504;13.480;2023-05-07T00:31:22;9.80;99.90
51867;DHT22;52862;52.504;13.480;2023-05-07T00:33:50;9.90;99.90
51867;DHT22;52862;52.504;13.480;2023-05-07T00:36:17;9.90;99.90
51867;DHT22;52862;52.504;13.480;2023-05-07T00:41:10;9.70;99.90
51867;DHT22;52862;52.504;13.480;2023-05-07T00:43:37;9.70;99.90
51867;DHT22;52862;52.504;13.480;2023-05-07T00:46:03;9.60;99.90
51867;DHT22;52862;52.504;13.480;2023-05-07T00:48:30;9.60;99.90
51867;DHT22;52862;52.504;13.480;2023-05-07T00:50:57;9.30;99.90
51867;DHT22;52862;52.504;13.480;2023-05-07T00:53:25;9.60;99.90
51867;DHT22;52862;52.504;13.480;2023-05-07T00:55:52;9.60;99.90
51867;DHT22;52862;52.504;13.480;2023-05-07T00:58:19;9.80;99.90
51867;DHT22;52862;52.504;13.480;2023-05-07T01:00:47;9.60;99.90
51867;DHT22;52862;52.504;13.480;2023-05-07T01:03:14;9.60;99.90
51867;DHT22;52862;52.504;13.480;2023-05-07T01:05:41;9.60;99.90
51867;DHT22;52862;52.504;13.480;2023-05-07T01:08:11;9.60;99.90
51867;DHT22;52862;52.504;13.480;2023-05-07T01:10:38;9.60;99.90
51867;DHT22;52862;52.504;13.480;2023-05-07T01:13:09;9.70;99.90
51867;DHT22;52862;52.504;13.480;2023-05-07T01:15:36;9.70;99.90
51867;DHT22;52862;52.504;13.480;2023-05-07T01:18:04;9.70;99.90
51867;DHT22;52862;52.504;13.480;2023-05-07T01:20:31;9.70;99.90
51867;DHT22;52862;52.504;13.480;2023-05-07T01:23:00;9.70;99.90
51867;DHT22;52862;52.504;13.480;2023-05-07T01:25:27;9.70;99.90
51867;DHT22;52862;52.504;13.480;2023-05-07T01:27:54;9.80;99.90
51867;DHT22;52862;52.504;13.480;2023-05-07T01:30:21;9.80;99.90
51867;DHT22;52862;52.504;13.480;2023-05-07T01:32:52;9.80;99.90
51867;DHT22;52862;52.504;13.480;2023-05-07T01:35:22;9.50;99.90
51867;DHT22;52862;52.504;13.480;2023-05-07T01:37:49;9.40;99.90
51867;DHT22;52862;52.504;13.480;2023-05-07T01:40:17;9.80;99.90
51867;DHT22;52862;52.504;13.480;2023-05-07T01:42:43;9.80;99.90
51867;DHT22;52862;52.504;13.480;2023-05-07T01:45:11;9.70;99.90
51867;DHT22;52862;52.504;13.480;2023-05-07T01:47:38;9.80;99.90
51867;DHT22;52862;52.504;13.480;2023-05-07T01:50:06;9.70;99.90
51867;DHT22;52862;52.504;13.480;2023-05-07T01:52:35;9.70;99.90
51867;DHT22;52862;52.504;13.480;2023-05-07T01:55:02;9.70;99.90
51867;DHT22;52862;52.504;13.480;2023-05-07T01:57:30;9.70;99.90
51867;DHT22;52862;52.504;13.480;2023-05-07T01:59:56;9.70;99.90
51867;DHT22;52862;52.504;13.480;2023-05-07T02:02:23;9.70;99.90
51867;DHT22;52862;52.504;13.480;2023-05-07T02:04:50;9.70;99.90
51867;DHT22;52862;52.504;13.480;2023-05-07T02:07:17;9.70;99.90
51867;DHT22;52862;52.504;13.480;2023-05-07T02:09:44;9.70;99.90
51867;DHT22;52862;52.504;13.480;2023-05-07T02:12:10;9.70;99.90
51867;DHT22;52862;52.504;13.480;2023-05-07T02:14:38;9.70;99.90
51867;DHT22;52862;52.504;13.480;2023-05-07T02:17:04;9.70;99.90
51867;DHT22;52862;52.504;13.480;2023-05-07T02:19:31;9.90;99.90
51867;DHT22;52862;52.504;13.480;2023-05-07T02:21:58;9.80;99.90
51867;DHT22;52862;52.504;13.480;2023-05-07T02:24:24;9.80;99.90
51867;DHT22;52862;52.504;13.480;2023-05-07T02:26:51;9.80;99.90
51867;DHT22;52862;52.504;13.480;2023-05-07T02:29:18;9.80;99.90
51867;DHT22;52862;52.504;13.480;2023-05-07T02:31:45;9.80;99.90
51867;DHT22;52862;52.504;13.480;2023-05-07T02:34:11;9.80;99.90
51867;DHT22;52862;52.504;13.480;2023-05-07T02:36:38;9.70;99.90
51867;DHT22;52862;52.504;13.480;2023-05-07T02:39:05;9.80;99.90
51867;DHT22;52862;52.504;13.480;2023-05-07T02:41:31;9.70;99.90
51867;DHT22;52862;52.504;13.480;2023-05-07T02:43:58;9.80;99.90
51867;DHT22;52862;52.504;13.480;2023-05-07T02:46:25;9.70;99.90
51867;DHT22;52862;52.504;13.480;2023-05-07T02:48:52;9.70;99.90
51867;DHT22;52862;52.504;13.480;2023-05-07T02:51:20;9.70;99.90
51867;DHT22;52862;52.504;13.480;2023-05-07T02:53:49;9.70;99.90
51867;DHT22;52862;52.504;13.480;2023-05-07T02:56:16;9.70;99.90
51867;DHT22;52862;52.504;13.480;2023-05-07T02:58:43;9.70;99.90
51867;DHT22;52862;52.504;13.480;2023-05-07T03:01:09;9.50;99.90
51867;DHT22;52862;52.504;13.480;2023-05-07T03:03:36;9.70;99.90
51867;DHT22;52862;52.504;13.480;2023-05-07T03:06:04;9.70;99.90
51867;DHT22;52862;52.504;13.480;2023-05-07T03:08:31;9.80;99.90
51867;DHT22;52862;52.504;13.480;2023-05-07T03:10:58;9.70;99.90
51867;DHT22;52862;52.504;13.480;2023-05-07T03:13:24;9.70;99.90
51867;DHT22;52862;52.504;13.480;2023-05-07T03:15:51;9.80;99.90
51867;DHT22;52862;52.504;13.480;2023-05-07T03:18:18;9.80;99.90
51867;DHT22;52862;52.504;13.480;2023-05-07T03:20:45;9.80;99.90
51867;DHT22;52862;52.504;13.480;2023-05-07T03:23:13;9.70;99.90
51867;DHT22;52862;52.504;13.480;2023-05-07T03:25:39;9.70;99.90
51867;DHT22;52862;52.504;13.480;2023-05-07T03:28:06;9.60;99.90
51867;DHT22;52862;52.504;13.480;2023-05-07T03:30:33;9.70;99.90
51867;DHT22;52862;52.504;13.480;2023-05-07T03:35:26;9.70;99.90
51867;DHT22;52862;52.504;13.480;2023-05-07T03:37:53;9.70;99.90
51867;DHT22;52862;52.504;13.480;2023-05-07T03:40:20;9.60;99.90
51867;DHT22;52862;52.504;13.480;2023-05-07T03:42:47;9.70;99.90
51867;DHT22;52862;52.504;13.480;2023-05-07T03:45:13;9.60;99.90
51867;DHT22;52862;52.504;13.480;2023-05-07T03:47:40;9.80;99.90
51867;DHT22;52862;52.504;13.480;2023-05-07T03:50:08;9.60;99.90
51867;DHT22;52862;52.504;13.480;2023-05-07T03:52:35;9.40;99.90
51867;DHT22;52862;52.504;13.480;2023-05-07T03:55:02;9.60;99.90
51867;DHT22;52862;52.504;13.480;2023-05-07T03:57:29;9.60;99.90
51867;DHT22;52862;52.504;13.480;2023-05-07T03:59:56;9.90;99.90
51867;DHT22;52862;52.504;13.480;2023-05-07T04:02:23;9.50;99.90
51867;DHT22;52862;52.504;13.480;2023-05-07T04:04:49;9.60;99.90
51867;DHT22;52862;52.504;13.480;2023-05-07T04:07:16;9.60;99.90
51867;DHT22;52862;52.504;13.480;2023-05-07T04:09:43;9.60;99.90
51867;DHT22;52862;52.504;13.480;2023-05-07T04:12:09;9.60;99.90
51867;DHT22;52862;52.504;13.480;2023-05-07T04:14:37;9.60;99.90
51867;DHT22;52862;52.504;13.480;2023-05-07T04:17:03;9.50;99.90
51867;DHT22;52862;52.504;13.480;2023-05-07T04:19:30;9.60;99.90
51867;DHT22;52862;52.504;13.480;2023-05-07T04:21:56;9.70;99.90
51867;DHT22;52862;52.504;13.480;2023-05-07T04:24:23;9.70;99.90
51867;DHT22;52862;52.504;13.480;2023-05-07T04:26:50;9.70;99.90
51867;DHT22;52862;52.504;13.480;2023-05-07T04:29:17;9.80;99.90
51867;DHT22;52862;52.504;13.480;2023-05-07T04:31:44;9.80;99.90
51867;DHT22;52862;52.504;13.480;2023-05-07T04:34:11;9.80;99.90
51867;DHT22;52862;52.504;13.480;2023-05-07T04:36:39;9.50;99.90
51867;DHT22;52862;52.504;13.480;2023-05-07T04:41:35;10.00;99.90
51867;DHT22;52862;52.504;13.480;2023-05-07T04:46:30;10.00;99.90
51867;DHT22;52862;52.504;13.480;2023-05-07T04:48:57;10.10;99.90
51867;DHT22;52862;52.504;13.480;2023-05-07T04:51:24;10.00;99.90
51867;DHT22;52862;52.504;13.480;2023-05-07T04:53:51;10.00;99.90
51867;DHT22;52862;52.504;13.480;2023-05-07T04:56:18;10.10;99.90
51867;DHT22;52862;52.504;13.480;2023-05-07T04:58:44;10.10;99.90
51867;DHT22;52862;52.504;13.480;2023-05-07T05:01:11;10.20;99.90
51867;DHT22;52862;52.504;13.480;2023-05-07T05:03:37;10.40;99.90
51867;DHT22;52862;52.504;13.480;2023-05-07T05:06:06;8.90;99.90
51867;DHT22;52862;52.504;13.480;2023-05-07T05:08:32;10.40;99.90
51867;DHT22;52862;52.504;13.480;2023-05-07T05:11:00;10.70;99.90
51867;DHT22;52862;52.504;13.480;2023-05-07T05:13:27;10.80;99.90
51867;DHT22;52862;52.504;13.480;2023-05-07T05:15:54;10.30;99.90
51867;DHT22;52862;52.504;13.480;2023-05-07T05:20:47;10.70;99.90
51867;DHT22;52862;52.504;13.480;2023-05-07T05:23:15;10.70;99.90
51867;DHT22;52862;52.504;13.480;2023-05-07T05:25:41;10.70;99.90
51867;DHT22;52862;52.504;13.480;2023-05-07T05:28:08;10.70;99.90
51867;DHT22;52862;52.504;13.480;2023-05-07T05:30:35;10.70;99.90
51867;DHT22;52862;52.504;13.480;2023-05-07T05:33:01;10.80;99.90
51867;DHT22;52862;52.504;13.480;2023-05-07T05:35:29;11.10;99.90
51867;DHT22;52862;52.504;13.480;2023-05-07T05:37:56;10.80;99.90
51867;DHT22;52862;52.504;13.480;2023-05-07T05:40:23;10.50;99.90
51867;DHT22;52862;52.504;13.480;2023-05-07T05:42:49;10.90;99.90
51867;DHT22;52862;52.504;13.480;2023-05-07T05:47:43;11.00;99.90
51867;DHT22;52862;52.504;13.480;2023-05-07T05:50:10;10.90;99.90
51867;DHT22;52862;52.504;13.480;2023-05-07T05:52:38;11.00;99.90
51867;DHT22;52862;52.504;13.480;2023-05-07T05:55:05;11.10;99.90
51867;DHT22;52862;52.504;13.480;2023-05-07T05:57:32;12.20;99.90
51867;DHT22;52862;52.504;13.480;2023-05-07T06:00:00;11.40;99.90
51867;DHT22;52862;52.504;13.480;2023-05-07T06:02:27;11.50;99.90
51867;DHT22;52862;52.504;13.480;2023-05-07T06:04:53;11.00;99.90
51867;DHT22;52862;52.504;13.480;2023-05-07T06:07:20;11.50;99.90
51867;DHT22;52862;52.504;13.480;2023-05-07T06:09:47;11.70;99.90
51867;DHT22;52862;52.504;13.480;2023-05-07T06:12:13;11.70;99.90
51867;DHT22;52862;52.504;13.480;2023-05-07T06:14:42;11.70;99.90
51867;DHT22;52862;52.504;13.480;2023-05-07T06:17:09;11.50;99.90
51867;DHT22;52862;52.504;13.480;2023-05-07T06:19:36;11.50;99.90
51867;DHT22;52862;52.504;13.480;2023-05-07T06:22:02;11.60;99.90
51867;DHT22;52862;52.504;13.480;2023-05-07T06:24:29;11.70;99.90
51867;DHT22;52862;52.504;13.480;2023-05-07T06:26:55;11.70;99.90
51867;DHT22;52862;52.504;13.480;2023-05-07T06:29:24;11.70;99.90
51867;DHT22;52862;52.504;13.480;2023-05-07T06:31:52;11.70;99.90
51867;DHT22;52862;52.504;13.480;2023-05-07T06:34:19;11.80;99.90
51867;DHT22;52862;52.504;13.480;2023-05-07T06:36:45;11.80;99.90
51867;DHT22;52862;52.504;13.480;2023-05-07T06:39:12;11.40;99.90
51867;DHT22;52862;52.504;13.480;2023-05-07T06:41:39;11.70;99.90
51867;DHT22;52862;52.504;13.480;2023-05-07T06:44:05;11.80;99.90
51867;DHT22;52862;52.504;13.480;2023-05-07T06:46:32;12.00;99.90
51867;DHT22;52862;52.504;13.480;2023-05-07T06:48:59;12.40;99.90
51867;DHT22;52862;52.504;13.480;2023-05-07T06:51:26;12.80;99.90
51867;DHT22;52862;52.504;13.480;2023-05-07T06:53:52;13.10;99.90
51867;DHT22;52862;52.504;13.480;2023-05-07T06:56:19;13.40;99.90
51867;DHT22;52862;52.504;13.480;2023-05-07T07:01:13;13.10;99.90
51867;DHT22;52862;52.504;13.480;2023-05-07T07:03:41;13.00;99.90
51867;DHT22;52862;52.504;13.480;2023-05-07T07:06:08;13.30;99.90
51867;DHT22;52862;52.504;13.480;2023-05-07T07:08:35;14.00;99.90
51867;DHT22;52862;52.504;13.480;2023-05-07T07:11:01;14.10;99.90
51867;DHT22;52862;52.504;13.480;2023-05-07T07:13:28;14.40;99.90
51867;DHT22;52862;52.504;13.480;2023-05-07T07:15:55;14.20;99.90
51867;DHT22;52862;52.504;13.480;2023-05-07T07:18:21;14.20;99.90
51867;DHT22;52862;52.504;13.480;2023-05-07T07:20:48;13.90;99.90
51867;DHT22;52862;52.504;13.480;2023-05-07T07:23:16;13.70;99.90
51867;DHT22;52862;52.504;13.480;2023-05-07T07:25:42;14.00;99.90
51867;DHT22;52862;52.504;13.480;2023-05-07T07:28:09;14.10;99.90
51867;DHT22;52862;52.504;13.480;2023-05-07T07:30:37;14.00;99.90
51867;DHT22;52862;52.504;13.480;2023-05-07T07:33:04;13.90;99.90
51867;DHT22;52862;52.504;13.480;2023-05-07T07:35:31;13.20;99.90
51867;DHT22;52862;52.504;13.480;2023-05-07T07:37:58;13.80;99.90
51867;DHT22;52862;52.504;13.480;2023-05-07T07:40:25;13.60;99.90
51867;DHT22;52862;52.504;13.480;2023-05-07T07:42:53;13.90;99.90
51867;DHT22;52862;52.504;13.480;2023-05-07T07:45:20;14.20;99.90
51867;DHT22;52862;52.504;13.480;2023-05-07T07:47:46;14.30;99.90
51867;DHT22;52862;52.504;13.480;2023-05-07T07:50:13;14.20;99.90
51867;DHT22;52862;52.504;13.480;2023-05-07T07:52:57;14.40;99.90
51867;DHT22;52862;52.504;13.480;2023-05-07T07:55:25;14.70;99.90
51867;DHT22;52862;52.504;13.480;2023-05-07T07:57:52;14.60;99.90
51867;DHT22;52862;52.504;13.480;2023-05-07T08:00:19;14.70;99.90
51867;DHT22;52862;52.504;13.480;2023-05-07T08:02:45;14.60;99.90
51867;DHT22;52862;52.504;13.480;2023-05-07T08:05:12;15.00;99.90
51867;DHT22;52862;52.504;13.480;2023-05-07T08:07:39;14.80;99.90
51867;DHT22;52862;52.504;13.480;2023-05-07T08:10:06;15.00;99.90
51867;DHT22;52862;52.504;13.480;2023-05-07T08:12:34;15.10;99.90
51867;DHT22;52862;52.504;13.480;2023-05-07T08:15:00;15.10;99.90
51867;DHT22;52862;52.504;13.480;2023-05-07T08:17:27;15.00;99.90
51867;DHT22;52862;52.504;13.480;2023-05-07T08:19:54;15.20;99.90
51867;DHT22;52862;52.504;13.480;2023-05-07T08:22:21;15.60;99.90
51867;DHT22;52862;52.504;13.480;2023-05-07T08:24:48;15.60;99.90
51867;DHT22;52862;52.504;13.480;2023-05-07T08:29:43;15.70;99.90
51867;DHT22;52862;52.504;13.480;2023-05-07T08:42:01;15.30;99.90
51867;DHT22;52862;52.504;13.480;2023-05-07T08:44:33;15.40;99.90
51867;DHT22;52862;52.504;13.480;2023-05-07T08:47:02;15.60;99.90
51867;DHT22;52862;52.504;13.480;2023-05-07T08:51:55;16.70;99.90
51867;DHT22;52862;52.504;13.480;2023-05-07T09:04:10;15.90;99.90
51867;DHT22;52862;52.504;13.480;2023-05-07T09:18:58;16.00;99.90
51867;DHT22;52862;52.504;13.480;2023-05-07T09:21:25;16.40;99.90
51867;DHT22;52862;52.504;13.480;2023-05-07T09:23:53;16.60;99.90
51867;DHT22;52862;52.504;13.480;2023-05-07T09:26:21;16.50;99.90
51867;DHT22;52862;52.504;13.480;2023-05-07T09:33:46;16.50;99.90
51867;DHT22;52862;52.504;13.480;2023-05-07T09:38:40;16.80;99.90
51867;DHT22;52862;52.504;13.480;2023-05-07T09:41:09;16.90;99.90
51867;DHT22;52862;52.504;13.480;2023-05-07T09:43:38;16.90;99.90
51867;DHT22;52862;52.504;13.480;2023-05-07T09:46:07;17.10;99.90
51867;DHT22;52862;52.504;13.480;2023-05-07T09:48:38;16.70;99.90
51867;DHT22;52862;52.504;13.480;2023-05-07T09:51:11;16.40;99.90
51867;DHT22;52862;52.504;13.480;2023-05-07T09:53:43;16.60;99.90
51867;DHT22;52862;52.504;13.480;2023-05-07T09:56:13;16.80;99.90
51867;DHT22;52862;52.504;13.480;2023-05-07T09:58:42;17.30;99.90
51867;DHT22;52862;52.504;13.480;2023-05-07T10:01:11;17.20;99.90
51867;DHT22;52862;52.504;13.480;2023-05-07T10:03:40;16.60;99.90
51867;DHT22;52862;52.504;13.480;2023-05-07T10:06:09;16.60;99.90
51867;DHT22;52862;52.504;13.480;2023-05-07T10:08:36;16.90;99.90
51867;DHT22;52862;52.504;13.480;2023-05-07T10:11:04;16.90;99.90
51867;DHT22;52862;52.504;13.480;2023-05-07T10:15:59;17.10;99.90
51867;DHT22;52862;52.504;13.480;2023-05-07T10:18:26;17.50;99.90
51867;DHT22;52862;52.504;13.480;2023-05-07T10:21:02;17.60;99.90
51867;DHT22;52862;52.504;13.480;2023-05-07T10:23:32;17.60;99.90
51867;DHT22;52862;52.504;13.480;2023-05-07T10:26:00;17.70;99.90
51867;DHT22;52862;52.504;13.480;2023-05-07T10:28:29;17.60;99.90
51867;DHT22;52862;52.504;13.480;2023-05-07T10:31:05;17.70;99.90
51867;DHT22;52862;52.504;13.480;2023-05-07T10:33:34;17.40;99.90
51867;DHT22;52862;52.504;13.480;2023-05-07T10:38:30;17.20;99.90
51867;DHT22;52862;52.504;13.480;2023-05-07T10:46:10;17.00;99.90
51867;DHT22;52862;52.504;13.480;2023-05-07T10:49:06;17.00;99.90
51867;DHT22;52862;52.504;13.480;2023-05-07T10:51:34;16.70;99.90
51867;DHT22;52862;52.504;13.480;2023-05-07T10:54:21;16.30;99.90
51867;DHT22;52862;52.504;13.480;2023-05-07T10:59:36;16.70;99.90
51867;DHT22;52862;52.504;13.480;2023-05-07T11:02:09;17.30;99.90
51867;DHT22;52862;52.504;13.480;2023-05-07T11:07:26;17.30;99.90
51867;DHT22;52862;52.504;13.480;2023-05-07T11:10:01;16.80;99.90
51867;DHT22;52862;52.504;13.480;2023-05-07T11:12:52;17.00;99.90
51867;DHT22;52862;52.504;13.480;2023-05-07T11:15:37;17.40;99.90
51867;DHT22;52862;52.504;13.480;2023-05-07T11:18:05;17.60;99.90
51867;DHT22;52862;52.504;13.480;2023-05-07T11:20:54;18.00;99.90
51867;DHT22;52862;52.504;13.480;2023-05-07T11:23:58;18.70;99.90
51867;DHT22;52862;52.504;13.480;2023-05-07T11:26:26;18.70;99.90
51867;DHT22;52862;52.504;13.480;2023-05-07T11:31:22;19.30;99.90
51867;DHT22;52862;52.504;13.480;2023-05-07T11:33:50;18.40;99.90
51867;DHT22;52862;52.504;13.480;2023-05-07T11:36:16;18.40;99.90
51867;DHT22;52862;52.504;13.480;2023-05-07T11:41:11;18.40;99.90
51867;DHT22;52862;52.504;13.480;2023-05-07T11:43:40;18.50;99.90
51867;DHT22;52862;52.504;13.480;2023-05-07T11:46:20;18.20;99.90
51867;DHT22;52862;52.504;13.480;2023-05-07T11:48:47;18.60;99.90
51867;DHT22;52862;52.504;13.480;2023-05-07T11:51:19;18.50;99.90
51867;DHT22;52862;52.504;13.480;2023-05-07T11:56:13;18.40;99.90
51867;DHT22;52862;52.504;13.480;2023-05-07T11:58:41;17.80;99.90
51867;DHT22;52862;52.504;13.480;2023-05-07T12:01:09;18.30;99.90
51867;DHT22;52862;52.504;13.480;2023-05-07T12:06:06;18.50;99.90
51867;DHT22;52862;52.504;13.480;2023-05-07T12:08:36;18.60;99.90
51867;DHT22;52862;52.504;13.480;2023-05-07T12:15:57;18.90;99.90
51867;DHT22;52862;52.504;13.480;2023-05-07T12:18:24;18.60;99.90
51867;DHT22;52862;52.504;13.480;2023-05-07T12:20:51;18.20;99.90
51867;DHT22;52862;52.504;13.480;2023-05-07T12:23:19;18.30;99.90
51867;DHT22;52862;52.504;13.480;2023-05-07T12:25:47;18.50;99.90
51867;DHT22;52862;52.504;13.480;2023-05-07T12:28:15;19.10;99.90
51867;DHT22;52862;52.504;13.480;2023-05-07T12:30:43;19.60;99.90
51867;DHT22;52862;52.504;13.480;2023-05-07T12:35:39;19.90;99.90
51867;DHT22;52862;52.504;13.480;2023-05-07T12:38:08;20.90;99.90
51867;DHT22;52862;52.504;13.480;2023-05-07T12:40:36;21.50;99.90
51867;DHT22;52862;52.504;13.480;2023-05-07T12:43:04;21.30;99.90
51867;DHT22;52862;52.504;13.480;2023-05-07T12:45:30;19.60;99.90
51867;DHT22;52862;52.504;13.480;2023-05-07T12:48:01;19.70;99.90
51867;DHT22;52862;52.504;13.480;2023-05-07T12:50:31;19.20;99.90
51867;DHT22;52862;52.504;13.480;2023-05-07T12:52:58;19.30;99.90
51867;DHT22;52862;52.504;13.480;2023-05-07T12:55:25;18.60;99.90
51867;DHT22;52862;52.504;13.480;2023-05-07T12:57:55;19.50;99.00
51867;DHT22;52862;52.504;13.480;2023-05-07T13:00:37;19.00;99.90
51867;DHT22;52862;52.504;13.480;2023-05-07T13:03:04;18.90;99.90
51867;DHT22;52862;52.504;13.480;2023-05-07T13:07:58;18.90;99.90
51867;DHT22;52862;52.504;13.480;2023-05-07T13:12:52;19.30;99.90
51867;DHT22;52862;52.504;13.480;2023-05-07T13:15:19;18.60;99.90
51867;DHT22;52862;52.504;13.480;2023-05-07T13:17:47;19.10;99.20
51867;DHT22;52862;52.504;13.480;2023-05-07T13:20:14;19.20;99.90
51867;DHT22;52862;52.504;13.480;2023-05-07T13:25:09;20.20;99.90
51867;DHT22;52862;52.504;13.480;2023-05-07T13:27:36;21.10;99.90
51867;DHT22;52862;52.504;13.480;2023-05-07T13:30:03;21.10;99.90
51867;DHT22;52862;52.504;13.480;2023-05-07T13:32:31;20.70;98.40
51867;DHT22;52862;52.504;13.480;2023-05-07T13:34:59;20.00;97.70
51867;DHT22;52862;52.504;13.480;2023-05-07T13:37:26;20.20;97.70
51867;DHT22;52862;52.504;13.480;2023-05-07T13:44:47;20.10;99.40
51867;DHT22;52862;52.504;13.480;2023-05-07T13:47:13;20.00;99.90
51867;DHT22;52862;52.504;13.480;2023-05-07T13:52:08;21.10;99.90
51867;DHT22;52862;52.504;13.480;2023-05-07T13:54:34;20.90;99.90
51867;DHT22;52862;52.504;13.480;2023-05-07T13:57:01;20.30;99.90
51867;DHT22;52862;52.504;13.480;2023-05-07T13:59:28;20.20;99.90
51867;DHT22;52862;52.504;13.480;2023-05-07T14:04:21;20.00;99.90
51867;DHT22;52862;52.504;13.480;2023-05-07T14:09:15;24.00;92.00
51867;DHT22;52862;52.504;13.480;2023-05-07T14:11:42;24.20;93.00
51867;DHT22;52862;52.504;13.480;2023-05-07T14:14:09;24.00;97.90
51867;DHT22;52862;52.504;13.480;2023-05-07T14:16:37;22.60;92.30
51867;DHT22;52862;52.504;13.480;2023-05-07T14:19:04;21.90;94.30
51867;DHT22;52862;52.504;13.480;2023-05-07T14:21:30;20.70;99.90
51867;DHT22;52862;52.504;13.480;2023-05-07T14:26:25;22.10;99.90
51867;DHT22;52862;52.504;13.480;2023-05-07T14:28:53;22.80;99.10
51867;DHT22;52862;52.504;13.480;2023-05-07T14:33:48;21.50;99.90
51867;DHT22;52862;52.504;13.480;2023-05-07T14:38:43;19.60;99.90
51867;DHT22;52862;52.504;13.480;2023-05-07T14:43:37;21.50;93.00
51867;DHT22;52862;52.504;13.480;2023-05-07T14:46:04;25.60;95.90
51867;DHT22;52862;52.504;13.480;2023-05-07T14:48:30;28.30;89.60
51867;DHT22;52862;52.504;13.480;2023-05-07T14:50:57;28.00;87.80
51867;DHT22;52862;52.504;13.480;2023-05-07T14:53:24;27.70;73.20
51867;DHT22;52862;52.504;13.480;2023-05-07T14:55:51;29.70;84.00
51867;DHT22;52862;52.504;13.480;2023-05-07T14:58:18;29.80;78.80
51867;DHT22;52862;52.504;13.480;2023-05-07T15:00:45;31.40;75.90
51867;DHT22;52862;52.504;13.480;2023-05-07T15:10:35;22.10;75.60
51867;DHT22;52862;52.504;13.480;2023-05-07T15:13:07;21.30;78.90
51867;DHT22;52862;52.504;13.480;2023-05-07T15:15:34;20.00;82.40
51867;DHT22;52862;52.504;13.480;2023-05-07T15:18:02;20.10;84.70
51867;DHT22;52862;52.504;13.480;2023-05-07T15:20:29;22.10;83.30
51867;DHT22;52862;52.504;13.480;2023-05-07T15:22:56;23.60;81.50
51867;DHT22;52862;52.504;13.480;2023-05-07T15:25:23;25.70;87.50
51867;DHT22;52862;52.504;13.480;2023-05-07T15:30:17;27.10;84.60
51867;DHT22;52862;52.504;13.480;2023-05-07T15:32:46;26.70;84.70
51867;DHT22;52862;52.504;13.480;2023-05-07T15:35:13;25.70;67.50
51867;DHT22;52862;52.504;13.480;2023-05-07T15:37:40;23.90;89.90
51867;DHT22;52862;52.504;13.480;2023-05-07T15:40:08;21.20;92.10
51867;DHT22;52862;52.504;13.480;2023-05-07T15:42:36;20.00;94.10
51867;DHT22;52862;52.504;13.480;2023-05-07T15:45:03;19.40;94.20
51867;DHT22;52862;52.504;13.480;2023-05-07T15:47:33;19.90;88.00
51867;DHT22;52862;52.504;13.480;2023-05-07T15:50:00;19.50;95.70
51867;DHT22;52862;52.504;13.480;2023-05-07T15:52:28;18.80;85.40
51867;DHT22;52862;52.504;13.480;2023-05-07T15:54:55;18.20;95.40
51867;DHT22;52862;52.504;13.480;2023-05-07T15:59:49;17.80;98.30
51867;DHT22;52862;52.504;13.480;2023-05-07T16:02:16;17.90;91.90
51867;DHT22;52862;52.504;13.480;2023-05-07T16:04:43;17.30;98.80
51867;DHT22;52862;52.504;13.480;2023-05-07T16:07:09;18.40;91.70
51867;DHT22;52862;52.504;13.480;2023-05-07T16:09:39;18.50;90.90
51867;DHT22;52862;52.504;13.480;2023-05-07T16:14:33;19.40;99.00
51867;DHT22;52862;52.504;13.480;2023-05-07T16:17:00;19.90;90.40
51867;DHT22;52862;52.504;13.480;2023-05-07T16:19:26;19.90;96.60
51867;DHT22;52862;52.504;13.480;2023-05-07T16:21:54;18.90;98.90
51867;DHT22;52862;52.504;13.480;2023-05-07T16:24:21;18.60;96.70
51867;DHT22;52862;52.504;13.480;2023-05-07T16:26:48;18.70;98.90
51867;DHT22;52862;52.504;13.480;2023-05-07T16:31:42;18.30;98.90
51867;DHT22;52862;52.504;13.480;2023-05-07T16:43:58;16.90;92.50
51867;DHT22;52862;52.504;13.480;2023-05-07T17:01:09;16.80;94.40
51867;DHT22;52862;52.504;13.480;2023-05-07T17:18:29;16.70;93.30
51867;DHT22;52862;52.504;13.480;2023-05-07T17:35:51;15.70;95.20
51867;DHT22;52862;52.504;13.480;2023-05-07T17:53:02;15.00;97.80
51867;DHT22;52862;52.504;13.480;2023-05-07T18:10:14;14.50;98.70
51867;DHT22;52862;52.504;13.480;2023-05-07T18:25:04;14.60;99.90
51867;DHT22;52862;52.504;13.480;2023-05-07T18:27:32;14.40;99.90
51867;DHT22;52862;52.504;13.480;2023-05-07T18:44:41;14.30;99.90
51867;DHT22;52862;52.504;13.480;2023-05-07T18:49:35;13.90;99.60
51867;DHT22;52862;52.504;13.480;2023-05-07T19:01:51;13.60;99.90
51867;DHT22;52862;52.504;13.480;2023-05-07T19:19:04;13.50;99.90
51867;DHT22;52862;52.504;13.480;2023-05-07T19:34:00;13.40;99.90
51867;DHT22;52862;52.504;13.480;2023-05-07T19:53:42;12.90;99.90
51867;DHT22;52862;52.504;13.480;2023-05-07T19:56:12;12.90;99.90
51867;DHT22;52862;52.504;13.480;2023-05-07T20:03:36;12.60;99.90
51867;DHT22;52862;52.504;13.480;2023-05-07T20:06:04;12.40;99.90
51867;DHT22;52862;52.504;13.480;2023-05-07T20:15:58;12.20;99.90
51867;DHT22;52862;52.504;13.480;2023-05-07T20:18:26;12.30;99.90
51867;DHT22;52862;52.504;13.480;2023-05-07T20:28:16;11.40;99.90
51867;DHT22;52862;52.504;13.480;2023-05-07T20:43:02;11.20;99.90
51867;DHT22;52862;52.504;13.480;2023-05-07T21:00:13;11.60;99.90
51867;DHT22;52862;52.504;13.480;2023-05-07T21:19:54;11.10;99.90
51867;DHT22;52862;52.504;13.480;2023-05-07T21:37:03;11.10;99.90
51867;DHT22;52862;52.504;13.480;2023-05-07T21:44:27;10.80;99.90
51867;DHT22;52862;52.504;13.480;2023-05-07T21:54:15;10.80;99.90
51867;DHT22;52862;52.504;13.480;2023-05-07T22:04:03;10.70;99.90
51867;DHT22;52862;52.504;13.480;2023-05-07T22:11:25;10.60;99.90
51867;DHT22;52862;52.504;13.480;2023-05-07T22:26:09;10.60;99.90
51867;DHT22;52862;52.504;13.480;2023-05-07T22:40:51;10.10;99.90
51867;DHT22;52862;52.504;13.480;2023-05-07T22:45:46;10.30;99.90